Time;durP1;ratioP1;P1;durP2;ratioP2;P2;SDS_P1;SDS_P2;PMS_P1;PMS_P2;Temp;Humidity;BMP_temperature;BMP_pressure;BME280_temperature;BME280_humidity;BME280_pressure;Samples;Min_cycle;Max_cycle;Signal;HPM_P1;HPM_P2
2022/10/17 00:00:42;;;;;;;8.60;3.95;;;11.40;99.90;;;;;;5032892;28;20051;-90
2022/10/17 00:03:08;;;;;;;10.90;4.28;;;11.40;99.90;;;;;;5032677;28;20026;-83
2022/10/17 00:05:39;;;;;;;8.40;3.97;;;11.40;99.90;;;;;;5032392;28;20032;-84
2022/10/17 00:08:04;;;;;;;8.40;3.63;;;11.40;99.90;;;;;;5032292;28;20029;-83
2022/10/17 00:10:30;;;;;;;6.28;3.70;;;11.30;99.90;;;;;;5031212;28;20083;-83
2022/10/17 00:12:56;;;;;;;9.07;3.70;;;11.30;99.90;;;;;;5031206;28;20458;-83
2022/10/17 00:15:22;;;;;;;5.95;3.63;;;11.30;99.90;;;;;;5032645;28;20049;-83
2022/10/17 00:17:47;;;;;;;8.45;3.40;;;11.30;99.90;;;;;;5032280;28;20056;-83
2022/10/17 00:20:14;;;;;;;5.00;3.42;;;11.30;99.90;;;;;;5031653;28;20022;-83
2022/10/17 00:22:39;;;;;;;8.77;3.70;;;11.30;99.90;;;;;;5032369;28;20493;-83
2022/10/17 00:25:05;;;;;;;8.02;3.63;;;11.30;99.90;;;;;;5025114;28;20097;-83
2022/10/17 00:27:35;;;;;;;8.55;3.72;;;11.30;99.90;;;;;;5027082;28;20029;-83
2022/10/17 00:30:00;;;;;;;7.53;3.00;;;11.20;99.90;;;;;;5031980;28;20180;-83
2022/10/17 00:32:26;;;;;;;11.77;3.17;;;11.20;99.90;;;;;;5031931;28;20605;-84
2022/10/17 00:34:52;;;;;;;8.55;3.05;;;11.10;99.90;;;;;;5031845;28;20025;-83
2022/10/17 00:37:17;;;;;;;9.88;3.70;;;11.00;99.90;;;;;;5032362;28;20029;-90
2022/10/17 00:39:43;;;;;;;5.80;3.47;;;11.00;99.90;;;;;;5033680;28;20041;-89
2022/10/17 00:42:11;;;;;;;9.18;3.80;;;11.00;99.90;;;;;;5018876;28;20021;-89
2022/10/17 00:44:39;;;;;;;7.95;3.17;;;10.90;99.90;;;;;;5030709;28;20033;-90
2022/10/17 00:47:10;;;;;;;9.82;3.58;;;10.90;99.90;;;;;;5019137;28;20467;-90
2022/10/17 00:49:37;;;;;;;10.40;3.35;;;10.90;99.90;;;;;;5025800;28;20091;-89
2022/10/17 00:52:08;;;;;;;5.10;2.97;;;10.80;99.90;;;;;;5030363;28;20038;-89
2022/10/17 00:54:38;;;;;;;7.70;3.80;;;10.80;99.90;;;;;;5022206;28;20355;-89
2022/10/17 00:57:04;;;;;;;7.43;4.20;;;10.80;99.90;;;;;;5029684;28;20033;-90
2022/10/17 00:59:32;;;;;;;7.57;3.70;;;10.70;99.90;;;;;;5031765;28;20499;-89
2022/10/17 01:02:04;;;;;;;11.07;3.73;;;10.70;99.90;;;;;;5035964;28;20381;-89
2022/10/17 01:04:29;;;;;;;8.82;3.35;;;10.70;99.90;;;;;;5035495;28;20022;-90
2022/10/17 01:06:55;;;;;;;5.40;3.00;;;10.70;99.90;;;;;;5033956;28;20521;-90
2022/10/17 01:09:21;;;;;;;5.60;3.03;;;10.70;99.90;;;;;;5031241;28;20410;-90
2022/10/17 01:11:59;;;;;;;6.60;3.07;;;10.70;99.90;;;;;;5035643;28;20374;-89
2022/10/17 01:14:30;;;;;;;9.07;3.13;;;10.70;99.90;;;;;;5035889;28;20362;-89
2022/10/17 01:17:43;;;;;;;8.43;3.00;;;10.70;99.90;;;;;;5034602;28;20080;-90
2022/10/17 01:20:30;;;;;;;8.60;3.10;;;10.70;99.90;;;;;;5034165;28;20045;-89
2022/10/17 01:23:28;;;;;;;7.05;2.85;;;10.70;99.90;;;;;;5035582;28;20022;-89
2022/10/17 01:26:08;;;;;;;9.90;2.90;;;10.70;99.90;;;;;;5025591;28;20090;-90
2022/10/17 01:28:55;;;;;;;5.30;3.00;;;10.70;99.90;;;;;;5032957;28;20462;-89
2022/10/17 01:31:26;;;;;;;7.68;3.45;;;10.70;99.90;;;;;;5035265;28;20025;-90
2022/10/17 01:34:20;;;;;;;14.17;3.23;;;10.70;99.90;;;;;;5035709;28;20017;-89
2022/10/17 01:37:03;;;;;;;8.25;3.17;;;10.60;99.90;;;;;;5026438;28;20049;-90
2022/10/17 01:39:52;;;;;;;14.20;3.05;;;10.60;99.90;;;;;;5024285;28;20085;-90
2022/10/17 01:42:20;;;;;;;5.72;2.97;;;10.60;99.90;;;;;;5036140;28;20025;-88
2022/10/17 01:45:02;;;;;;;6.25;3.00;;;10.50;99.90;;;;;;5036593;28;20045;-88
2022/10/17 01:47:31;;;;;;;5.95;2.70;;;10.50;99.90;;;;;;5036481;28;20079;-88
2022/10/17 01:50:09;;;;;;;5.65;2.88;;;10.50;99.90;;;;;;5036382;28;20026;-88
2022/10/17 01:52:50;;;;;;;4.30;2.78;;;10.50;99.90;;;;;;5036358;28;20021;-88
2022/10/17 01:55:24;;;;;;;7.30;2.77;;;10.50;99.90;;;;;;5035091;28;20022;-88
2022/10/17 01:57:59;;;;;;;9.73;2.97;;;10.50;99.90;;;;;;5036320;28;20083;-88
2022/10/17 02:00:26;;;;;;;4.53;2.70;;;10.50;99.90;;;;;;5035458;28;20025;-83
2022/10/17 02:02:57;;;;;;;6.20;2.80;;;10.40;99.90;;;;;;5034902;28;20026;-83
2022/10/17 02:05:29;;;;;;;5.47;3.10;;;10.40;99.90;;;;;;5035176;28;20025;-87
2022/10/17 02:07:55;;;;;;;9.63;2.53;;;10.40;99.90;;;;;;5035420;28;20107;-87
2022/10/17 02:10:45;;;;;;;5.37;2.67;;;10.40;99.90;;;;;;5035724;28;20049;-87
2022/10/17 02:13:29;;;;;;;9.90;2.60;;;10.40;99.90;;;;;;5035712;28;20402;-87
2022/10/17 02:15:55;;;;;;;7.38;2.55;;;10.30;99.90;;;;;;5022923;28;20124;-88
2022/10/17 02:18:44;;;;;;;5.13;2.80;;;10.30;99.90;;;;;;5035613;28;20537;-86
2022/10/17 02:21:13;;;;;;;11.57;3.28;;;10.30;99.90;;;;;;5035674;28;20061;-87
2022/10/17 02:23:44;;;;;;;6.55;3.03;;;10.30;99.90;;;;;;5035538;28;20030;-87
2022/10/17 02:26:23;;;;;;;5.10;2.35;;;10.20;99.90;;;;;;5035462;28;20032;-83
2022/10/17 02:29:03;;;;;;;12.40;2.50;;;10.20;99.90;;;;;;5034707;28;20018;-83
2022/10/17 02:31:48;;;;;;;4.43;2.13;;;10.20;99.90;;;;;;5031420;28;20024;-82
2022/10/17 02:34:19;;;;;;;8.00;2.65;;;10.20;99.90;;;;;;5022187;28;20029;-83
2022/10/17 02:36:50;;;;;;;3.83;2.37;;;10.20;99.90;;;;;;5033301;28;20409;-83
2022/10/17 02:39:19;;;;;;;7.30;2.20;;;10.10;99.90;;;;;;5034418;28;20041;-83
2022/10/17 02:41:46;;;;;;;11.65;2.55;;;10.10;99.90;;;;;;5034425;28;20025;-83
2022/10/17 02:44:13;;;;;;;14.13;3.22;;;10.20;99.90;;;;;;5033758;28;20021;-83
2022/10/17 02:46:40;;;;;;;9.77;2.80;;;10.10;99.90;;;;;;5033530;28;20086;-83
2022/10/17 02:49:23;;;;;;;6.97;2.42;;;10.10;99.90;;;;;;5033273;28;20021;-82
2022/10/17 02:52:08;;;;;;;6.80;2.50;;;10.10;99.90;;;;;;5033159;28;20026;-83
2022/10/17 02:54:43;;;;;;;4.93;2.25;;;10.00;99.90;;;;;;5020109;28;20020;-82
2022/10/17 02:57:30;;;;;;;7.00;2.50;;;9.90;99.90;;;;;;5027254;28;20073;-83
2022/10/17 02:59:58;;;;;;;7.90;2.50;;;9.90;99.90;;;;;;5031631;28;20033;-83
2022/10/17 03:02:23;;;;;;;11.00;2.70;;;9.90;99.90;;;;;;5032708;28;20489;-83
2022/10/17 03:04:49;;;;;;;7.77;2.50;;;9.80;99.90;;;;;;5032711;28;20037;-83
2022/10/17 03:07:15;;;;;;;11.83;2.80;;;9.80;99.90;;;;;;5032810;28;20037;-83
2022/10/17 03:09:40;;;;;;;11.50;2.53;;;9.80;99.90;;;;;;5031848;28;20052;-82
2022/10/17 03:12:06;;;;;;;7.23;2.60;;;9.80;99.90;;;;;;5033417;28;20049;-83
2022/10/17 03:14:31;;;;;;;5.83;2.63;;;9.70;99.90;;;;;;5033376;28;20029;-83
2022/10/17 03:16:57;;;;;;;5.43;2.60;;;9.70;99.90;;;;;;5033491;28;20505;-83
2022/10/17 03:19:22;;;;;;;6.90;2.80;;;9.70;99.90;;;;;;5033015;28;20021;-83
2022/10/17 03:21:48;;;;;;;8.23;2.67;;;9.70;99.90;;;;;;5033346;28;20053;-83
2022/10/17 03:24:14;;;;;;;7.97;2.80;;;9.70;99.90;;;;;;5019779;28;20037;-83
2022/10/17 03:26:39;;;;;;;6.27;3.30;;;9.70;99.90;;;;;;5032121;28;20025;-83
2022/10/17 03:29:05;;;;;;;5.93;2.77;;;9.60;99.90;;;;;;5033246;28;20030;-83
2022/10/17 03:31:30;;;;;;;5.40;2.60;;;9.60;99.90;;;;;;5032815;28;20052;-83
2022/10/17 03:33:56;;;;;;;6.07;2.70;;;9.60;99.90;;;;;;5033198;28;20497;-83
2022/10/17 03:36:22;;;;;;;4.87;2.77;;;9.60;99.90;;;;;;5033123;28;20052;-83
2022/10/17 03:38:48;;;;;;;6.13;2.60;;;9.60;99.90;;;;;;5032975;28;20045;-83
2022/10/17 03:41:13;;;;;;;5.63;2.93;;;9.60;99.90;;;;;;5033207;28;20115;-83
2022/10/17 03:43:39;;;;;;;7.93;2.80;;;9.50;99.90;;;;;;5031272;28;20128;-83
2022/10/17 03:46:05;;;;;;;9.30;2.90;;;9.50;99.90;;;;;;5023909;28;20030;-83
2022/10/17 03:48:31;;;;;;;8.43;3.00;;;9.50;99.90;;;;;;5028739;28;20343;-83
2022/10/17 03:51:05;;;;;;;5.60;2.93;;;9.50;99.90;;;;;;5033280;28;20018;-83
2022/10/17 03:53:31;;;;;;;7.80;2.87;;;9.50;99.90;;;;;;5031715;28;20032;-83
2022/10/17 03:56:07;;;;;;;9.30;2.80;;;9.50;99.90;;;;;;5033261;28;20108;-83
2022/10/17 03:58:33;;;;;;;5.63;2.90;;;9.50;99.90;;;;;;5033244;28;20021;-83
2022/10/17 04:01:03;;;;;;;7.70;2.93;;;9.50;99.90;;;;;;5019006;28;20382;-83
2022/10/17 04:03:29;;;;;;;7.10;2.73;;;9.50;99.90;;;;;;5032892;28;20036;-83
2022/10/17 04:05:58;;;;;;;7.00;2.70;;;9.50;99.90;;;;;;5031429;28;20022;-83
2022/10/17 04:08:25;;;;;;;9.73;3.73;;;9.50;99.90;;;;;;5032962;28;20021;-82
2022/10/17 04:10:50;;;;;;;3.73;2.73;;;9.50;99.90;;;;;;5032927;28;20026;-83
2022/10/17 04:13:16;;;;;;;11.17;3.03;;;9.50;99.90;;;;;;5032574;28;20434;-83
2022/10/17 04:15:42;;;;;;;5.00;2.47;;;9.40;99.90;;;;;;5032752;28;20032;-87
2022/10/17 04:18:07;;;;;;;9.50;2.80;;;9.40;99.90;;;;;;5032974;28;20036;-87
2022/10/17 04:20:34;;;;;;;7.87;2.97;;;9.40;99.90;;;;;;5032836;28;20105;-83
2022/10/17 04:22:59;;;;;;;9.97;3.37;;;9.40;99.90;;;;;;5032668;28;20022;-83
2022/10/17 04:25:25;;;;;;;5.07;2.27;;;9.40;99.90;;;;;;5032902;28;20040;-83
2022/10/17 04:27:50;;;;;;;9.37;2.57;;;9.40;99.90;;;;;;5032783;28;20017;-83
2022/10/17 04:30:16;;;;;;;7.80;3.03;;;9.40;99.90;;;;;;5032229;28;20080;-83
2022/10/17 04:32:42;;;;;;;7.43;3.00;;;9.30;99.90;;;;;;5032360;28;20405;-83
2022/10/17 04:35:07;;;;;;;4.67;2.30;;;9.30;99.90;;;;;;5035157;28;20353;-83
2022/10/17 04:37:33;;;;;;;6.57;2.57;;;9.30;99.90;;;;;;5036786;28;20111;-83
2022/10/17 04:39:59;;;;;;;5.50;2.53;;;9.30;99.90;;;;;;5036667;28;20554;-83
2022/10/17 04:42:24;;;;;;;4.33;2.70;;;9.30;99.90;;;;;;5036520;28;20032;-83
2022/10/17 04:44:50;;;;;;;11.03;2.80;;;9.30;99.90;;;;;;5036327;28;20504;-83
2022/10/17 04:47:15;;;;;;;4.60;2.63;;;9.20;99.90;;;;;;5036422;28;20087;-83
2022/10/17 04:49:41;;;;;;;5.77;2.63;;;9.20;99.90;;;;;;5033240;28;20026;-81
2022/10/17 04:52:06;;;;;;;8.57;3.87;;;9.20;99.90;;;;;;5033284;28;20036;-80
2022/10/17 04:54:32;;;;;;;5.50;3.13;;;9.20;99.90;;;;;;5034390;28;20028;-80
2022/10/17 04:56:57;;;;;;;7.77;3.80;;;9.20;99.90;;;;;;5034423;28;20100;-80
2022/10/17 04:59:23;;;;;;;8.43;3.37;;;9.10;99.90;;;;;;5028206;28;20040;-80
2022/10/17 05:01:49;;;;;;;7.13;3.40;;;9.10;99.90;;;;;;5028914;28;20411;-80
2022/10/17 05:04:15;;;;;;;8.70;2.90;;;9.10;99.90;;;;;;5028792;28;20026;-81
2022/10/17 05:06:40;;;;;;;5.30;3.30;;;9.10;99.90;;;;;;5031988;28;20110;-80
2022/10/17 05:09:06;;;;;;;12.63;2.90;;;9.10;99.90;;;;;;5031146;28;20025;-80
2022/10/17 05:11:31;;;;;;;7.60;3.30;;;9.10;99.90;;;;;;5030217;28;20477;-81
2022/10/17 05:14:00;;;;;;;5.17;3.27;;;9.10;99.90;;;;;;5031983;28;20033;-80
2022/10/17 05:16:27;;;;;;;9.17;3.40;;;9.10;99.90;;;;;;5030364;28;20022;-80
2022/10/17 05:18:55;;;;;;;7.73;3.40;;;9.10;99.90;;;;;;5030373;28;20037;-80
2022/10/17 05:21:23;;;;;;;8.50;3.93;;;9.10;99.90;;;;;;5031913;28;20094;-80
2022/10/17 05:23:49;;;;;;;8.50;4.03;;;9.10;99.90;;;;;;5026073;28;20180;-80
2022/10/17 05:26:14;;;;;;;10.70;4.13;;;9.10;99.90;;;;;;5032853;28;20033;-80
2022/10/17 05:28:40;;;;;;;6.80;4.20;;;9.10;99.90;;;;;;5032961;28;20041;-80
2022/10/17 05:31:07;;;;;;;9.07;3.60;;;9.10;99.90;;;;;;5029062;28;20037;-80
2022/10/17 05:33:41;;;;;;;9.90;3.57;;;9.00;99.90;;;;;;5030912;28;20022;-81
2022/10/17 05:36:07;;;;;;;6.80;3.00;;;9.00;99.90;;;;;;5034647;28;20037;-81
2022/10/17 05:38:33;;;;;;;5.43;2.93;;;9.00;99.90;;;;;;5035205;28;20163;-85
2022/10/17 05:41:01;;;;;;;11.53;5.80;;;9.00;99.90;;;;;;5033908;28;20116;-86
2022/10/17 05:43:27;;;;;;;10.70;7.20;;;9.00;99.90;;;;;;5035675;28;20033;-86
2022/10/17 05:45:53;;;;;;;14.73;10.30;;;8.90;99.90;;;;;;5033493;28;20040;-80
2022/10/17 05:48:19;;;;;;;8.30;4.20;;;8.90;99.90;;;;;;5034240;28;20135;-80
2022/10/17 05:50:45;;;;;;;6.37;3.80;;;8.90;99.90;;;;;;5026194;28;20026;-80
2022/10/17 05:53:10;;;;;;;11.17;7.30;;;8.90;99.90;;;;;;5030199;28;20037;-85
2022/10/17 05:55:36;;;;;;;12.53;7.10;;;8.90;99.90;;;;;;5027895;28;20034;-85
2022/10/17 05:58:02;;;;;;;12.93;5.73;;;8.90;99.90;;;;;;5030783;28;20757;-86
2022/10/17 06:00:27;;;;;;;7.50;4.43;;;8.90;99.90;;;;;;5032567;28;20033;-85
2022/10/17 06:02:53;;;;;;;8.37;3.43;;;8.90;99.90;;;;;;5031204;28;20052;-85
2022/10/17 06:05:19;;;;;;;8.23;3.53;;;9.00;99.90;;;;;;5030275;28;20038;-86
2022/10/17 06:07:45;;;;;;;9.20;5.40;;;9.00;99.90;;;;;;5034210;28;20104;-86
2022/10/17 06:10:13;;;;;;;8.13;4.40;;;9.10;99.90;;;;;;5020472;28;20117;-86
2022/10/17 06:12:39;;;;;;;11.43;4.00;;;9.10;99.90;;;;;;5034757;28;20028;-86
2022/10/17 06:15:05;;;;;;;9.37;4.97;;;9.10;99.90;;;;;;5034783;28;20509;-86
2022/10/17 06:17:31;;;;;;;9.30;4.80;;;9.10;99.90;;;;;;5033693;28;20370;-85
2022/10/17 06:19:56;;;;;;;6.77;3.87;;;9.20;99.90;;;;;;5027693;28;20080;-85
2022/10/17 06:22:22;;;;;;;13.47;4.37;;;9.20;99.90;;;;;;5037967;28;20043;-85
2022/10/17 06:24:48;;;;;;;13.07;4.83;;;9.20;99.90;;;;;;5043087;28;20072;-85
2022/10/17 06:27:13;;;;;;;9.33;3.90;;;9.30;99.90;;;;;;5038095;28;20032;-85
2022/10/17 06:29:39;;;;;;;11.90;4.67;;;9.30;99.90;;;;;;5041824;28;20037;-85
2022/10/17 06:32:05;;;;;;;15.90;5.20;;;9.30;99.90;;;;;;5041145;28;20029;-85
2022/10/17 06:34:31;;;;;;;12.03;4.50;;;9.30;99.90;;;;;;5039318;28;20029;-80
2022/10/17 06:36:56;;;;;;;11.67;4.60;;;9.40;99.90;;;;;;5037482;28;20465;-80
2022/10/17 06:39:23;;;;;;;9.27;4.80;;;9.40;99.90;;;;;;5039987;28;20084;-80
2022/10/17 06:41:49;;;;;;;8.57;4.30;;;9.50;99.90;;;;;;5037364;28;20025;-80
2022/10/17 06:44:15;;;;;;;14.10;4.80;;;9.50;99.90;;;;;;5038543;28;20097;-80
2022/10/17 06:46:40;;;;;;;14.40;4.60;;;9.60;99.90;;;;;;5037921;28;20144;-80
2022/10/17 06:49:06;;;;;;;10.10;5.70;;;9.70;99.90;;;;;;5030624;28;20049;-80
2022/10/17 06:51:36;;;;;;;12.43;4.37;;;9.70;99.90;;;;;;5026427;28;20021;-86
2022/10/17 06:54:02;;;;;;;8.23;4.10;;;9.80;99.90;;;;;;5023853;28;20049;-85
2022/10/17 06:56:28;;;;;;;10.60;3.90;;;9.90;99.90;;;;;;5033197;28;20160;-85
2022/10/17 06:58:54;;;;;;;6.22;4.00;;;9.90;99.90;;;;;;5039382;28;20505;-85
2022/10/17 07:01:19;;;;;;;10.10;3.87;;;10.00;99.90;;;;;;5031098;28;20029;-85
2022/10/17 07:03:48;;;;;;;7.97;3.40;;;10.10;99.90;;;;;;5030165;28;20025;-85
2022/10/17 07:06:14;;;;;;;10.60;3.92;;;10.20;99.90;;;;;;5031511;28;20026;-85
2022/10/17 07:08:44;;;;;;;6.67;4.00;;;10.20;99.90;;;;;;5022892;28;20445;-85
2022/10/17 07:11:18;;;;;;;12.43;4.13;;;10.30;99.90;;;;;;5026338;28;20030;-86
2022/10/17 07:13:44;;;;;;;11.35;4.53;;;10.40;99.90;;;;;;5029752;28;20017;-86
2022/10/17 07:16:10;;;;;;;8.25;3.80;;;10.50;99.90;;;;;;5031929;28;20036;-85
2022/10/17 07:18:36;;;;;;;9.88;3.63;;;10.60;99.90;;;;;;5031102;28;20100;-85
2022/10/17 07:21:02;;;;;;;10.48;4.13;;;10.70;99.90;;;;;;5032403;28;20108;-81
2022/10/17 07:23:28;;;;;;;9.27;4.65;;;10.80;99.90;;;;;;5032444;28;20076;-81
2022/10/17 07:26:05;;;;;;;9.55;4.55;;;11.00;99.90;;;;;;5032452;28;20429;-81
2022/10/17 07:28:32;;;;;;;11.00;4.20;;;11.10;99.90;;;;;;5032066;28;20041;-81
2022/10/17 07:31:03;;;;;;;9.18;4.03;;;11.30;99.90;;;;;;5032349;28;20018;-81
2022/10/17 07:33:29;;;;;;;8.68;4.32;;;11.40;99.90;;;;;;5032729;28;20026;-81
2022/10/17 07:35:57;;;;;;;9.30;3.88;;;11.60;99.90;;;;;;5032244;28;20027;-81
2022/10/17 07:38:23;;;;;;;8.02;3.97;;;11.70;99.90;;;;;;5029396;28;20022;-82
2022/10/17 07:40:56;;;;;;;8.57;3.40;;;11.90;99.90;;;;;;5029489;28;20433;-81
2022/10/17 07:43:22;;;;;;;7.20;3.33;;;12.00;99.90;;;;;;5024958;28;20517;-81
2022/10/17 07:45:48;;;;;;;8.00;3.08;;;12.10;99.90;;;;;;5027994;28;20044;-81
2022/10/17 07:48:14;;;;;;;6.15;3.38;;;12.30;99.90;;;;;;5028716;28;20359;-81
2022/10/17 07:50:39;;;;;;;7.22;2.90;;;12.40;99.90;;;;;;5031168;28;20104;-81
2022/10/17 07:53:05;;;;;;;5.88;3.17;;;12.60;99.90;;;;;;5029123;28;20474;-81
2022/10/17 07:55:30;;;;;;;9.60;2.83;;;12.70;99.90;;;;;;5030795;28;20098;-81
2022/10/17 07:57:57;;;;;;;6.25;3.20;;;12.90;99.90;;;;;;5027191;28;20022;-81
2022/10/17 08:00:22;;;;;;;9.05;3.00;;;13.10;99.90;;;;;;5017261;28;20446;-81
2022/10/17 08:02:48;;;;;;;7.20;2.60;;;13.30;99.90;;;;;;5019737;28;20053;-82
2022/10/17 08:05:14;;;;;;;5.13;2.80;;;13.50;99.90;;;;;;5031788;28;20024;-82
2022/10/17 08:07:40;;;;;;;9.27;2.85;;;13.70;99.90;;;;;;5040532;28;20216;-82
2022/10/17 08:10:11;;;;;;;5.18;2.80;;;13.90;99.90;;;;;;5030733;28;20474;-82
2022/10/17 08:12:36;;;;;;;8.05;3.15;;;14.10;99.90;;;;;;5020044;28;20040;-82
2022/10/17 08:15:03;;;;;;;5.30;2.67;;;14.30;99.90;;;;;;5027928;28;20034;-82
2022/10/17 08:17:29;;;;;;;10.02;2.92;;;14.40;99.90;;;;;;5012727;28;20029;-87
2022/10/17 08:19:54;;;;;;;9.02;2.78;;;14.60;99.90;;;;;;5018320;28;20028;-87
2022/10/17 08:22:20;;;;;;;5.35;2.85;;;14.80;99.90;;;;;;5032695;28;20033;-87
2022/10/17 08:24:46;;;;;;;7.50;2.92;;;15.00;99.90;;;;;;5032797;28;20033;-87
2022/10/17 08:27:13;;;;;;;4.82;2.60;;;15.20;99.90;;;;;;5032599;28;20030;-86
2022/10/17 08:29:39;;;;;;;4.03;2.75;;;15.40;99.90;;;;;;5032727;28;20057;-87
2022/10/17 08:32:06;;;;;;;7.53;2.90;;;15.60;99.90;;;;;;5020711;28;20022;-87
2022/10/17 08:34:32;;;;;;;6.78;2.97;;;15.70;99.90;;;;;;5012928;28;20026;-87
2022/10/17 08:36:57;;;;;;;7.82;2.75;;;15.90;99.90;;;;;;5013270;28;20451;-87
2022/10/17 08:39:23;;;;;;;4.57;2.55;;;16.20;99.90;;;;;;5012632;28;20050;-87
2022/10/17 08:42:08;;;;;;;8.35;2.72;;;16.30;99.90;;;;;;5012907;28;20117;-87
2022/10/17 08:44:53;;;;;;;10.13;2.95;;;16.60;99.90;;;;;;5013369;28;20029;-87
2022/10/17 08:47:27;;;;;;;6.90;2.75;;;16.80;99.90;;;;;;5027385;28;20044;-80
2022/10/17 08:49:57;;;;;;;7.78;2.97;;;17.00;99.90;;;;;;5031453;28;20029;-84
2022/10/17 08:52:39;;;;;;;7.97;2.90;;;17.10;99.90;;;;;;5022661;28;20029;-84
2022/10/17 08:55:14;;;;;;;5.00;2.85;;;17.20;99.90;;;;;;5031550;28;20025;-83
2022/10/17 08:57:40;;;;;;;7.70;3.10;;;17.40;99.90;;;;;;5031968;28;20049;-83
2022/10/17 09:00:17;;;;;;;11.95;2.97;;;17.50;99.90;;;;;;5029503;28;20025;-84
2022/10/17 09:03:07;;;;;;;5.93;2.58;;;17.60;99.90;;;;;;5031427;28;20022;-81
2022/10/17 09:05:48;;;;;;;4.65;2.42;;;17.80;99.90;;;;;;5029167;28;20098;-81
2022/10/17 09:08:35;;;;;;;4.88;2.15;;;17.90;99.90;;;;;;5020344;28;20025;-81
2022/10/17 09:11:33;;;;;;;5.70;2.20;;;18.10;99.90;;;;;;5026468;28;20843;-80
2022/10/17 09:14:36;;;;;;;4.85;2.35;;;18.40;99.90;;;;;;5030460;28;20047;-84
2022/10/17 09:17:13;;;;;;;4.18;2.40;;;18.50;99.90;;;;;;5014327;28;20113;-81
2022/10/17 09:20:08;;;;;;;4.75;2.15;;;18.60;99.90;;;;;;5030695;28;20069;-84
2022/10/17 09:22:58;;;;;;;4.40;2.28;;;18.70;99.90;;;;;;5034099;28;20025;-80
2022/10/17 09:25:24;;;;;;;6.32;2.50;;;18.80;99.90;;;;;;5004602;28;20038;-86
2022/10/17 09:28:10;;;;;;;8.07;2.65;;;18.90;99.90;;;;;;5026135;28;20030;-81
2022/10/17 09:31:04;;;;;;;2.72;1.85;;;19.00;99.90;;;;;;5033707;28;20018;-86
2022/10/17 09:33:38;;;;;;;3.10;2.13;;;19.20;99.90;;;;;;5030127;28;20028;-84
2022/10/17 09:36:29;;;;;;;3.35;2.05;;;19.40;99.90;;;;;;5029918;28;20055;-84
2022/10/17 09:39:15;;;;;;;3.90;2.20;;;19.50;99.90;;;;;;5027128;28;20072;-84
2022/10/17 09:41:45;;;;;;;2.70;2.10;;;19.60;99.90;;;;;;5027293;28;20801;-85
2022/10/17 09:44:40;;;;;;;4.28;2.30;;;19.90;99.90;;;;;;5034433;28;20017;-86
2022/10/17 09:47:33;;;;;;;4.07;2.50;;;19.90;99.90;;;;;;5028964;28;20053;-86
2022/10/17 09:50:00;;;;;;;3.45;2.53;;;20.10;99.90;;;;;;5030505;28;20023;-87
2022/10/17 09:52:39;;;;;;;3.38;2.30;;;20.20;99.90;;;;;;5033185;28;20092;-81
2022/10/17 09:55:14;;;;;;;3.65;2.13;;;20.50;99.90;;;;;;5031763;28;20022;-82
2022/10/17 09:58:00;;;;;;;4.88;2.22;;;20.70;99.90;;;;;;5031994;28;20032;-82
2022/10/17 10:00:28;;;;;;;3.97;2.10;;;20.70;99.90;;;;;;5030371;28;20030;-82
2022/10/17 10:03:09;;;;;;;3.92;2.10;;;20.70;99.90;;;;;;5031407;28;20083;-82
2022/10/17 10:05:34;;;;;;;3.47;2.05;;;20.80;99.90;;;;;;5021000;28;20038;-82
2022/10/17 10:08:04;;;;;;;3.45;2.20;;;20.90;99.90;;;;;;5033363;28;20044;-82
2022/10/17 10:10:32;;;;;;;2.92;1.92;;;21.10;99.90;;;;;;5034663;28;20045;-82
2022/10/17 10:13:02;;;;;;;4.78;1.83;;;21.20;99.90;;;;;;5032129;28;20045;-82
2022/10/17 10:15:42;;;;;;;3.83;2.10;;;21.40;99.90;;;;;;5032563;28;20030;-82
2022/10/17 10:18:31;;;;;;;5.68;2.03;;;21.50;99.90;;;;;;5032971;28;20467;-82
2022/10/17 10:21:05;;;;;;;4.00;2.13;;;21.80;99.90;;;;;;5033918;28;20029;-82
2022/10/17 10:23:31;;;;;;;3.58;2.05;;;21.80;99.90;;;;;;5024590;28;20033;-82
2022/10/17 10:26:24;;;;;;;4.07;1.80;;;21.90;99.90;;;;;;5031397;28;20037;-82
2022/10/17 10:29:03;;;;;;;3.25;1.85;;;22.00;99.90;;;;;;5028109;28;20479;-86
2022/10/17 10:31:48;;;;;;;5.47;2.53;;;22.10;99.90;;;;;;5023703;28;20533;-86
2022/10/17 10:34:31;;;;;;;8.23;1.90;;;22.20;99.90;;;;;;5033550;28;20030;-86
2022/10/17 10:37:05;;;;;;;3.65;2.17;;;22.30;99.90;;;;;;5028497;28;20042;-86
2022/10/17 10:39:58;;;;;;;5.78;2.38;;;22.30;99.90;;;;;;5031671;28;20054;-86
2022/10/17 10:42:32;;;;;;;2.90;1.95;;;22.40;99.90;;;;;;5030986;28;20064;-86
2022/10/17 10:45:22;;;;;;;2.93;2.23;;;22.40;99.90;;;;;;5032030;28;20056;-85
2022/10/17 10:48:04;;;;;;;3.55;2.10;;;22.40;99.90;;;;;;5031480;28;20052;-86
2022/10/17 10:50:42;;;;;;;4.90;2.10;;;22.50;99.90;;;;;;5032666;28;20071;-86
2022/10/17 10:53:33;;;;;;;4.20;2.15;;;22.60;99.90;;;;;;5021528;28;20028;-86
2022/10/17 10:56:01;;;;;;;6.70;2.17;;;22.60;99.90;;;;;;5032992;28;20037;-86
2022/10/17 10:58:35;;;;;;;3.58;2.00;;;23.00;99.90;;;;;;5023283;28;20083;-86
2022/10/17 11:01:05;;;;;;;4.18;2.00;;;23.10;99.90;;;;;;5031821;28;20032;-86
2022/10/17 11:03:41;;;;;;;3.85;1.80;;;23.20;99.90;;;;;;5032178;28;20037;-83
2022/10/17 11:06:33;;;;;;;4.72;1.63;;;23.40;99.90;;;;;;5048689;28;20386;-82
2022/10/17 11:09:05;;;;;;;4.50;2.08;;;23.60;99.90;;;;;;5033104;28;20032;-82
2022/10/17 11:11:51;;;;;;;2.85;2.08;;;23.50;99.90;;;;;;5030808;28;20026;-80
2022/10/17 11:14:49;;;;;;;3.75;2.20;;;23.50;99.90;;;;;;5031606;28;20021;-81
2022/10/17 11:17:40;;;;;;;3.95;2.15;;;23.60;99.90;;;;;;5031437;28;20639;-81
2022/10/17 11:20:28;;;;;;;4.68;1.92;;;23.70;99.90;;;;;;5029711;28;20108;-81
2022/10/17 11:23:05;;;;;;;3.05;2.08;;;23.90;99.90;;;;;;5028125;28;20028;-81
2022/10/17 11:25:42;;;;;;;4.22;1.98;;;23.90;99.90;;;;;;5030601;28;20026;-81
2022/10/17 11:28:20;;;;;;;5.10;1.92;;;23.70;99.90;;;;;;5031033;28;20082;-81
2022/10/17 11:30:57;;;;;;;6.03;1.98;;;23.90;99.90;;;;;;5027457;28;20023;-81
2022/10/17 11:33:29;;;;;;;6.00;1.85;;;24.00;99.90;;;;;;5029958;28;20017;-81
2022/10/17 11:36:05;;;;;;;5.43;2.45;;;24.30;99.90;;;;;;5031099;28;20030;-81
2022/10/17 11:38:48;;;;;;;2.67;1.70;;;24.40;99.90;;;;;;5019348;28;20049;-81
2022/10/17 11:41:35;;;;;;;3.20;2.35;;;24.80;99.90;;;;;;5021891;28;20104;-81
2022/10/17 11:44:14;;;;;;;2.30;1.88;;;24.80;99.90;;;;;;5033222;28;20033;-81
2022/10/17 11:54:02;;;;;;;2.33;1.80;;;25.10;99.90;;;;;;5033995;28;20386;-81
2022/10/17 11:57:11;;;;;;;5.60;2.10;;;25.10;99.90;;;;;;5033616;28;20041;-81
2022/10/17 12:00:13;;;;;;;3.38;1.80;;;25.10;99.90;;;;;;5032062;28;20095;-81
2022/10/17 12:03:32;;;;;;;4.32;1.70;;;25.00;99.90;;;;;;5032446;28;20017;-81
2022/10/17 12:06:13;;;;;;;3.33;1.70;;;25.20;99.90;;;;;;5029935;28;20032;-81
2022/10/17 12:09:24;;;;;;;2.30;1.70;;;25.70;99.90;;;;;;5027724;28;20109;-81
2022/10/17 12:11:56;;;;;;;3.30;1.55;;;25.40;99.90;;;;;;5025262;28;20030;-81
2022/10/17 12:14:45;;;;;;;5.45;1.90;;;25.30;99.90;;;;;;5030336;28;20029;-81
2022/10/17 12:17:32;;;;;;;3.80;1.90;;;25.60;99.90;;;;;;5030277;28;20440;-81
2022/10/17 12:20:31;;;;;;;3.50;1.77;;;25.60;99.90;;;;;;5030064;28;20074;-81
2022/10/17 12:23:03;;;;;;;2.70;1.70;;;26.00;99.90;;;;;;5018572;28;20038;-86
2022/10/17 12:25:32;;;;;;;3.95;1.88;;;26.20;99.90;;;;;;5032734;28;20029;-86
2022/10/17 12:28:13;;;;;;;7.93;1.90;;;26.20;99.90;;;;;;5033013;28;20109;-87
2022/10/17 12:31:21;;;;;;;2.90;1.77;;;26.30;99.90;;;;;;5033317;28;20022;-87
2022/10/17 12:33:54;;;;;;;5.18;1.50;;;25.90;99.90;;;;;;5020854;28;20030;-87
2022/10/17 12:36:26;;;;;;;5.88;2.00;;;25.80;99.90;;;;;;5026138;28;20252;-87
2022/10/17 12:39:00;;;;;;;5.68;1.65;;;25.70;99.90;;;;;;5019147;28;20045;-88
2022/10/17 12:41:38;;;;;;;4.60;1.90;;;25.80;99.90;;;;;;5032802;28;20100;-87
2022/10/17 12:44:20;;;;;;;3.42;1.60;;;25.90;99.90;;;;;;5014611;28;20065;-81
2022/10/17 12:46:51;;;;;;;3.42;2.03;;;25.80;99.90;;;;;;5023206;28;20029;-81
2022/10/17 12:49:21;;;;;;;2.80;1.77;;;25.70;99.90;;;;;;5022564;28;20098;-82
2022/10/17 12:52:14;;;;;;;3.28;1.70;;;25.80;99.90;;;;;;5017503;28;20097;-82
2022/10/17 12:54:44;;;;;;;2.58;1.60;;;25.90;99.90;;;;;;5026198;28;20029;-83
2022/10/17 12:57:34;;;;;;;2.80;1.60;;;26.00;99.90;;;;;;5035332;28;20029;-83
2022/10/17 13:00:22;;;;;;;2.83;1.70;;;25.80;99.90;;;;;;5027672;28;20053;-82
2022/10/17 13:02:50;;;;;;;2.80;1.75;;;25.80;99.90;;;;;;5032799;28;20025;-82
2022/10/17 13:05:29;;;;;;;1.92;1.60;;;25.80;99.90;;;;;;5033281;28;20134;-83
2022/10/17 13:07:58;;;;;;;3.30;2.08;;;25.60;99.90;;;;;;5026527;28;20382;-82
2022/10/17 13:10:29;;;;;;;5.25;1.67;;;25.60;99.90;;;;;;5032327;28;20470;-82
2022/10/17 13:13:05;;;;;;;3.58;1.92;;;25.50;99.90;;;;;;5024418;28;20068;-82
2022/10/17 13:15:32;;;;;;;2.17;1.52;;;25.30;99.90;;;;;;5035314;28;20030;-82
2022/10/17 13:18:00;;;;;;;3.28;1.52;;;25.60;99.90;;;;;;5023793;28;20018;-82
2022/10/17 13:20:28;;;;;;;2.80;1.67;;;25.60;99.90;;;;;;5030856;28;20387;-82
2022/10/17 13:22:56;;;;;;;3.20;1.65;;;25.50;99.90;;;;;;5025543;28;20029;-87